createdAt,value
2018-09-14T05:47:24.074Z,23.17
2018-09-14T05:49:52.376Z,22.50
2018-09-14T05:52:20.801Z,18.80
2018-09-14T05:54:49.136Z,19.57
2018-09-14T05:57:17.422Z,18.10
2018-09-14T05:59:45.752Z,18.30
2018-09-14T06:02:14.077Z,17.13
2018-09-14T06:04:42.310Z,18.77
2018-09-14T06:07:10.572Z,16.60
2018-09-14T06:09:38.797Z,16.53
2018-09-14T06:12:07.241Z,15.37
2018-09-14T06:14:35.596Z,16.47
2018-09-14T06:17:03.882Z,17.27
2018-09-14T06:19:32.158Z,17.60
2018-09-14T06:22:00.445Z,15.30
2018-09-14T06:24:28.740Z,17.00
2018-09-14T06:26:57.128Z,17.53
2018-09-14T06:29:25.430Z,16.50
2018-09-14T06:31:53.737Z,19.33
2018-09-14T06:34:22.055Z,18.70
2018-09-14T06:36:50.332Z,20.33
2018-09-14T06:39:18.680Z,20.27
2018-09-14T06:41:46.940Z,18.40
2018-09-14T06:44:15.180Z,19.50
2018-09-14T06:46:43.395Z,18.73
2018-09-14T06:49:11.715Z,19.30
2018-09-14T06:51:40.010Z,17.90
2018-09-14T06:54:08.724Z,19.60
2018-09-14T06:56:37.014Z,21.90
2018-09-14T06:59:05.362Z,20.30
2018-09-14T07:01:33.631Z,21.13
2018-09-14T07:04:01.869Z,20.90
2018-09-14T07:06:30.357Z,22.00
2018-09-14T07:08:58.652Z,22.30
2018-09-14T07:11:26.996Z,22.80
2018-09-14T07:13:55.256Z,22.20
2018-09-14T07:16:23.469Z,21.80
2018-09-14T07:18:51.737Z,20.50
2018-09-14T07:21:20.032Z,19.47
2018-09-14T07:23:48.304Z,18.30
2018-09-14T07:26:16.584Z,19.47
2018-09-14T07:28:44.903Z,19.07
2018-09-14T07:31:13.151Z,19.33
2018-09-14T07:33:41.472Z,19.20
2018-09-14T07:36:09.767Z,20.27
2018-09-14T07:38:38.444Z,18.23
2018-09-14T07:41:07.087Z,20.03
2018-09-14T07:43:35.337Z,18.50
2018-09-14T07:46:03.623Z,18.47
2018-09-14T07:48:31.899Z,18.27
2018-09-14T07:51:00.149Z,17.70
2018-09-14T07:53:28.430Z,18.43
2018-09-14T07:55:56.822Z,18.53
2018-09-14T07:58:25.098Z,17.60
2018-09-14T08:00:53.343Z,18.27
2018-09-14T08:03:21.609Z,18.93
2018-09-14T08:05:49.959Z,18.60
2018-09-14T08:08:18.344Z,17.67
2018-09-14T08:10:46.639Z,17.40
2018-09-14T08:13:14.956Z,18.03
2018-09-14T08:15:43.177Z,20.73
2018-09-14T08:18:11.438Z,16.70
2018-09-14T08:20:39.759Z,16.60
2018-09-14T08:23:07.984Z,16.10
2018-09-14T08:25:36.276Z,17.13
2018-09-14T08:28:04.555Z,16.57
2018-09-14T08:30:32.795Z,17.43
2018-09-14T08:33:01.068Z,16.93
2018-09-14T08:35:29.333Z,17.47
2018-09-14T08:37:57.640Z,16.13
2018-09-14T08:40:25.884Z,15.57
2018-09-14T08:42:54.204Z,15.10
2018-09-14T08:45:22.496Z,16.00
2018-09-14T08:47:50.771Z,15.70
2018-09-14T08:50:19.132Z,15.40
2018-09-14T08:52:47.517Z,15.77
2018-09-14T08:55:15.831Z,14.73
2018-09-14T08:57:44.133Z,15.07
2018-09-14T09:00:12.458Z,15.03
2018-09-14T09:02:40.768Z,13.30
2018-09-14T09:05:09.112Z,15.50
2018-09-14T09:07:37.440Z,14.23
2018-09-14T09:10:05.742Z,12.80
2018-09-14T09:12:34.075Z,14.50
2018-09-14T09:15:02.374Z,14.63
2018-09-14T09:17:30.653Z,14.40
2018-09-14T09:20:00.102Z,15.73
2018-09-14T09:22:28.401Z,15.80
2018-09-14T09:24:56.728Z,15.67
2018-09-14T09:27:25.049Z,15.93
2018-09-14T09:29:53.307Z,17.40
2018-09-14T09:32:21.587Z,16.67
2018-09-14T09:34:49.862Z,16.40
2018-09-14T09:37:18.121Z,16.93
2018-09-14T09:39:46.470Z,18.10
2018-09-14T09:42:14.728Z,21.97
2018-09-14T09:44:43.047Z,21.53
2018-09-14T09:47:11.356Z,20.57
2018-09-14T09:49:39.696Z,20.40
2018-09-14T09:52:07.977Z,19.80
2018-09-14T09:54:36.323Z,19.53
2018-09-14T09:57:04.591Z,20.57
2018-09-14T09:59:32.896Z,18.60
2018-09-14T10:02:06.731Z,17.20
2018-09-14T10:05:44.451Z,18.23
2018-09-14T10:08:12.772Z,18.37
2018-09-14T10:10:41.062Z,15.47
2018-09-14T10:13:09.316Z,15.70
2018-09-14T10:15:37.608Z,18.10
2018-09-14T10:18:05.926Z,18.10
2018-09-14T10:20:34.230Z,17.97
2018-09-14T10:23:02.501Z,17.63
2018-09-14T10:25:30.813Z,15.80
2018-09-14T10:27:59.157Z,17.23
2018-09-14T10:30:27.414Z,15.93
2018-09-14T10:32:55.674Z,16.57
2018-09-14T10:35:24.013Z,16.03
2018-09-14T10:37:52.338Z,17.70
2018-09-14T10:40:20.584Z,19.80
2018-09-14T10:42:48.942Z,20.30
2018-09-14T10:45:17.191Z,22.17
2018-09-14T10:47:45.411Z,21.90
2018-09-14T10:50:13.701Z,20.20
2018-09-14T10:52:41.999Z,21.77
2018-09-14T10:55:10.313Z,20.47
2018-09-14T10:57:38.547Z,21.13
2018-09-14T11:00:06.892Z,21.80
2018-09-14T11:02:35.191Z,19.97
2018-09-14T11:05:03.503Z,20.50
2018-09-14T11:07:31.757Z,20.90
2018-09-14T11:10:00.119Z,20.03
2018-09-14T11:12:28.394Z,20.20
2018-09-14T11:14:56.683Z,20.97
2018-09-14T11:17:25.014Z,20.53
2018-09-14T11:19:53.300Z,22.90
2018-09-14T11:22:21.732Z,21.03
2018-09-14T11:24:50.155Z,19.83
2018-09-14T11:27:18.241Z,19.90
2018-09-14T11:29:46.568Z,20.20
2018-09-14T11:32:14.839Z,19.53
2018-09-14T11:34:43.063Z,20.77
2018-09-14T11:37:11.343Z,20.00
2018-09-14T11:39:39.582Z,18.50
2018-09-14T11:42:07.842Z,17.47
2018-09-14T11:44:36.125Z,17.70
2018-09-14T11:47:04.412Z,16.97
2018-09-14T11:49:32.702Z,18.30
2018-09-14T11:52:01.178Z,18.80
2018-09-14T11:54:29.450Z,17.07
2018-09-14T11:56:57.762Z,16.27
2018-09-14T11:59:26.094Z,15.70
2018-09-14T12:01:54.686Z,14.87
2018-09-14T12:04:23.301Z,14.07
2018-09-14T12:06:51.471Z,14.53
2018-09-14T12:09:19.729Z,12.90
2018-09-14T12:11:48.050Z,11.80
2018-09-14T12:14:16.336Z,11.90
2018-09-14T12:16:44.648Z,12.23
2018-09-14T12:19:12.880Z,10.80
2018-09-14T12:21:41.136Z,10.47
2018-09-14T12:24:09.488Z,11.00
2018-09-14T12:26:37.768Z,10.23
2018-09-14T12:29:06.133Z,9.93
2018-09-14T12:31:34.407Z,10.53
2018-09-14T12:34:02.700Z,12.13
2018-09-14T12:36:31.019Z,12.93
2018-09-14T12:38:59.338Z,16.00
2018-09-14T12:41:27.551Z,15.73
2018-09-14T12:43:55.813Z,13.60
2018-09-14T12:46:24.122Z,14.37
2018-09-14T12:48:52.374Z,14.10
2018-09-14T12:51:20.670Z,13.83
2018-09-14T12:53:48.955Z,14.27
2018-09-14T12:56:17.201Z,13.10
2018-09-14T12:58:45.468Z,13.10
2018-09-14T13:01:13.692Z,11.73
2018-09-14T13:03:41.962Z,10.80
2018-09-14T13:06:10.201Z,10.50
2018-09-14T13:08:38.529Z,9.40
2018-09-14T13:11:06.936Z,9.40
2018-09-14T13:13:35.254Z,12.67
2018-09-14T13:16:03.610Z,10.37
2018-09-14T13:18:31.851Z,10.70
2018-09-14T13:21:00.336Z,11.20
2018-09-14T13:23:28.609Z,10.37
